Archival Weather

Ahwaz

Ahwaz, Iran (OIAW)

Report from: Sunday, October 1, 2023 7:00 AM +0330
Current time: Friday, July 19, 2024 6:44 AM +0330

Current weather – Weather history – Daily summaries
Weather forecast

Temperature25.0°C (77.0°F)
Dew point8.0°C (46.4°F)
Winds 6 kts (3.1 m/s, 6.9 mph) West-Northwest (290°)
Visibility5 mi. (8 km)
Altimeter29.74 in.Hg (1007 mB)
Relative humidity34 %
Density altitude1,524 ft. (464 m)
Flight conditions Marginal Visual Meteorological Conditions
Raw dataOIAW 010330Z 29006KT 8000 NSC 25/08 Q1007
An error has occurred. This application may no longer respond until reloaded. Reload 🗙